Time;durP1;ratioP1;P1;durP2;ratioP2;P2;SDS_P1;SDS_P2;PMS_P1;PMS_P2;Temp;Humidity;BMP_temperature;BMP_pressure;BME280_temperature;BME280_humidity;BME280_pressure;Samples;Min_cycle;Max_cycle;Signal;HPM_P1;HPM_P2
2023/05/10 00:01:19;;;;;;;2.47;1.10;;;16.10;99.90;;;;;;5034706;28;20198;-76
2023/05/10 00:03:51;;;;;;;2.78;1.17;;;16.20;99.90;;;;;;5034497;28;20205;-75
2023/05/10 00:06:24;;;;;;;2.33;1.25;;;16.30;99.90;;;;;;5034748;28;20637;-75
2023/05/10 00:08:55;;;;;;;2.50;1.30;;;16.40;99.90;;;;;;5034545;28;20190;-75
2023/05/10 00:11:26;;;;;;;11.48;6.35;;;16.50;99.90;;;;;;5034518;28;20200;-75
2023/05/10 00:13:57;;;;;;;2.65;1.35;;;16.70;99.90;;;;;;5034469;28;20281;-75
2023/05/10 00:16:28;;;;;;;2.72;1.40;;;16.70;99.90;;;;;;5034338;28;20642;-75
2023/05/10 00:18:59;;;;;;;1.33;1.00;;;16.80;99.90;;;;;;5034085;28;20222;-76
2023/05/10 00:21:33;;;;;;;2.03;1.00;;;17.00;99.90;;;;;;5034290;28;20187;-74
2023/05/10 00:24:04;;;;;;;2.03;0.93;;;17.10;99.90;;;;;;5034111;28;20190;-76
2023/05/10 00:26:35;;;;;;;1.42;1.00;;;17.20;99.90;;;;;;5034121;28;20600;-74
2023/05/10 00:29:07;;;;;;;1.88;0.90;;;17.30;99.90;;;;;;5034704;28;20190;-74
2023/05/10 00:31:38;;;;;;;2.47;0.85;;;17.40;99.90;;;;;;5034372;28;20191;-77
2023/05/10 00:34:09;;;;;;;1.67;1.00;;;17.60;99.90;;;;;;5033950;28;20646;-75
2023/05/10 00:36:42;;;;;;;2.78;0.80;;;17.70;99.90;;;;;;5034079;28;20194;-74
2023/05/10 00:39:13;;;;;;;2.20;1.08;;;17.80;99.90;;;;;;5034742;28;20673;-75
2023/05/10 00:41:45;;;;;;;2.25;1.05;;;17.90;99.90;;;;;;5033949;28;20195;-76
2023/05/10 00:44:16;;;;;;;1.00;0.60;;;18.00;99.90;;;;;;5033975;28;20198;-76
2023/05/10 00:46:47;;;;;;;1.70;0.70;;;18.20;99.90;;;;;;5033922;28;20196;-75
2023/05/10 00:49:19;;;;;;;2.35;0.90;;;18.40;99.90;;;;;;5033731;28;20199;-76
2023/05/10 00:51:52;;;;;;;0.90;0.52;;;18.50;99.90;;;;;;5033745;28;20195;-77
2023/05/10 00:54:24;;;;;;;1.50;0.60;;;18.50;99.90;;;;;;5033553;28;20221;-76
2023/05/10 00:56:56;;;;;;;1.65;0.60;;;18.50;99.90;;;;;;5034039;28;20630;-74
2023/05/10 00:59:28;;;;;;;1.33;0.60;;;18.60;99.90;;;;;;5033570;28;20257;-74
2023/05/10 01:02:00;;;;;;;1.45;0.52;;;18.60;99.90;;;;;;5033632;28;20634;-73
2023/05/10 01:04:32;;;;;;;0.88;0.57;;;18.60;99.90;;;;;;5033558;28;20552;-72
2023/05/10 01:07:05;;;;;;;0.82;0.50;;;18.60;99.90;;;;;;5033773;28;20552;-74
2023/05/10 01:09:37;;;;;;;1.88;0.60;;;18.70;99.90;;;;;;5033262;28;20534;-73
2023/05/10 01:12:09;;;;;;;3.50;0.50;;;18.80;99.90;;;;;;5034216;28;20546;-74
2023/05/10 01:14:40;;;;;;;3.63;0.50;;;18.90;99.90;;;;;;5033133;28;20200;-73
2023/05/10 01:17:13;;;;;;;3.03;0.60;;;18.90;99.90;;;;;;5032900;28;20201;-75
2023/05/10 01:19:44;;;;;;;1.02;0.63;;;18.90;99.90;;;;;;5031868;28;20226;-73
2023/05/10 01:22:34;;;;;;;2.10;0.50;;;19.00;99.90;;;;;;5033316;28;20201;-74
2023/05/10 01:25:35;;;;;;;2.13;0.68;;;19.10;99.90;;;;;;5033326;28;20198;-72
2023/05/10 01:28:39;;;;;;;1.55;0.60;;;19.10;99.90;;;;;;5033254;28;20244;-73
2023/05/10 01:31:31;;;;;;;1.85;0.70;;;19.20;99.90;;;;;;5033264;28;20216;-73
2023/05/10 01:34:09;;;;;;;1.67;0.63;;;19.30;99.90;;;;;;5033215;28;20190;-73
2023/05/10 01:36:46;;;;;;;1.05;0.50;;;19.30;99.90;;;;;;5036892;28;20256;-72
2023/05/10 01:39:25;;;;;;;1.10;0.40;;;19.40;99.90;;;;;;5037298;28;20218;-73
2023/05/10 01:42:02;;;;;;;2.53;0.60;;;19.40;99.90;;;;;;5038171;28;20284;-73
2023/05/10 01:44:38;;;;;;;2.38;0.65;;;19.50;99.90;;;;;;5036933;28;20241;-73
2023/05/10 01:47:13;;;;;;;1.85;0.55;;;19.50;99.90;;;;;;5037283;28;20225;-74
2023/05/10 01:49:49;;;;;;;2.15;0.45;;;19.50;99.90;;;;;;5037193;28;20186;-73
2023/05/10 01:52:25;;;;;;;1.65;0.50;;;19.60;99.90;;;;;;5037112;28;20547;-73
2023/05/10 01:55:02;;;;;;;1.40;0.75;;;19.60;99.90;;;;;;5037243;28;20235;-72
2023/05/10 01:57:39;;;;;;;2.00;0.77;;;19.60;99.90;;;;;;5037394;28;20693;-72
2023/05/10 02:00:12;;;;;;;1.00;0.47;;;19.50;99.90;;;;;;5036686;28;20218;-73
2023/05/10 02:02:47;;;;;;;1.33;1.00;;;19.50;99.90;;;;;;5036830;28;20194;-74
2023/05/10 02:05:23;;;;;;;1.25;0.68;;;19.60;99.90;;;;;;5036782;28;20193;-74
2023/05/10 02:07:56;;;;;;;1.40;0.55;;;19.70;99.90;;;;;;5036753;28;20650;-72
2023/05/10 02:10:27;;;;;;;1.90;0.70;;;19.70;99.90;;;;;;5036681;28;20196;-73
2023/05/10 02:13:01;;;;;;;2.55;0.80;;;19.80;99.90;;;;;;5036724;28;20194;-73
2023/05/10 02:15:33;;;;;;;0.82;0.50;;;19.80;99.90;;;;;;5036517;28;20216;-72
2023/05/10 02:18:06;;;;;;;2.88;0.80;;;19.90;99.90;;;;;;5035828;28;20195;-72
2023/05/10 02:20:40;;;;;;;2.88;0.73;;;19.90;99.90;;;;;;5036270;28;20222;-73
2023/05/10 02:23:12;;;;;;;2.05;0.80;;;20.00;99.90;;;;;;5035544;28;20204;-72
2023/05/10 02:25:45;;;;;;;1.98;0.60;;;20.00;99.90;;;;;;5035615;28;20197;-72
2023/05/10 02:28:18;;;;;;;1.42;0.60;;;20.10;99.90;;;;;;5036213;28;20206;-73
2023/05/10 02:30:49;;;;;;;3.47;0.55;;;20.00;99.90;;;;;;5037677;28;20205;-73
2023/05/10 02:33:21;;;;;;;1.70;0.65;;;20.10;99.90;;;;;;5036713;28;20571;-72
2023/05/10 02:35:56;;;;;;;1.63;0.85;;;20.00;99.90;;;;;;5036561;28;20205;-73
2023/05/10 02:38:28;;;;;;;2.50;0.82;;;20.00;99.90;;;;;;5037256;28;20190;-73
2023/05/10 02:40:59;;;;;;;3.40;0.98;;;20.00;99.90;;;;;;5035334;28;20229;-72
2023/05/10 02:43:34;;;;;;;1.27;0.80;;;20.00;99.90;;;;;;5035991;28;20205;-72
2023/05/10 02:46:07;;;;;;;4.22;0.80;;;20.10;99.90;;;;;;5036149;28;20200;-73
2023/05/10 02:48:38;;;;;;;1.23;0.55;;;20.10;99.90;;;;;;5041086;28;20281;-73
2023/05/10 02:51:13;;;;;;;2.17;0.70;;;20.10;99.90;;;;;;5042760;28;20623;-72
2023/05/10 02:53:48;;;;;;;2.58;0.80;;;20.10;99.90;;;;;;5036792;28;20196;-73
2023/05/10 02:56:27;;;;;;;2.88;0.73;;;20.10;99.90;;;;;;5035086;28;20264;-72
2023/05/10 02:58:59;;;;;;;3.45;0.80;;;20.10;99.90;;;;;;5033748;28;20284;-72
2023/05/10 03:01:30;;;;;;;1.65;0.80;;;20.10;99.90;;;;;;5040401;28;20202;-73
2023/05/10 03:04:01;;;;;;;3.80;0.80;;;20.10;99.90;;;;;;5036488;28;20194;-73
2023/05/10 03:06:34;;;;;;;2.00;0.80;;;20.10;99.90;;;;;;5039363;28;20197;-72
2023/05/10 03:09:07;;;;;;;1.55;0.55;;;20.00;99.90;;;;;;5032818;28;20217;-73
2023/05/10 03:11:50;;;;;;;1.85;0.70;;;20.00;99.90;;;;;;5035763;28;20552;-73
2023/05/10 03:14:31;;;;;;;2.03;0.75;;;20.00;99.90;;;;;;5033461;28;20220;-75
2023/05/10 03:17:09;;;;;;;3.45;0.90;;;20.00;99.90;;;;;;5035512;28;20225;-75
2023/05/10 03:19:46;;;;;;;1.17;0.70;;;19.90;99.90;;;;;;5031951;28;20213;-74
2023/05/10 03:22:26;;;;;;;2.38;0.63;;;19.90;99.90;;;;;;5037470;28;20201;-75
2023/05/10 03:24:59;;;;;;;2.22;0.80;;;20.00;99.90;;;;;;5031929;28;20545;-76
2023/05/10 03:27:32;;;;;;;1.55;0.73;;;20.00;99.90;;;;;;5020535;28;20573;-77
2023/05/10 03:30:04;;;;;;;3.85;0.90;;;20.00;99.90;;;;;;5033157;28;20205;-76
2023/05/10 03:32:36;;;;;;;2.70;0.55;;;20.00;99.90;;;;;;5034322;28;20198;-75
2023/05/10 03:35:11;;;;;;;1.23;0.88;;;19.80;99.90;;;;;;5034288;28;20204;-76
2023/05/10 03:37:44;;;;;;;2.47;0.70;;;19.80;99.90;;;;;;5020968;28;20193;-76
2023/05/10 03:40:16;;;;;;;2.70;0.90;;;19.70;99.90;;;;;;5035387;28;20697;-78
2023/05/10 03:42:48;;;;;;;1.67;0.55;;;19.70;99.90;;;;;;5034652;28;20202;-74
2023/05/10 03:45:19;;;;;;;3.05;0.80;;;19.70;99.90;;;;;;5022257;28;20198;-76
2023/05/10 03:47:50;;;;;;;2.15;0.70;;;19.70;99.90;;;;;;5033929;28;20198;-74
2023/05/10 03:50:21;;;;;;;2.83;0.70;;;19.70;99.90;;;;;;5033990;28;20206;-74
2023/05/10 03:52:54;;;;;;;2.20;0.70;;;19.70;99.90;;;;;;5038001;28;20197;-73
2023/05/10 03:55:26;;;;;;;4.95;0.93;;;19.70;99.90;;;;;;5034027;28;20681;-73
2023/05/10 03:57:57;;;;;;;3.38;0.73;;;19.60;99.90;;;;;;5029774;28;20308;-75
2023/05/10 04:00:28;;;;;;;1.92;0.70;;;19.60;99.90;;;;;;5034045;28;20217;-76
2023/05/10 04:02:59;;;;;;;1.15;0.50;;;19.60;99.90;;;;;;5034266;28;20202;-74
2023/05/10 04:05:30;;;;;;;2.05;0.77;;;19.50;99.90;;;;;;5034554;28;20194;-75
2023/05/10 04:08:03;;;;;;;1.83;0.60;;;19.50;99.90;;;;;;5033980;28;20198;-75
2023/05/10 04:10:34;;;;;;;2.30;0.88;;;19.50;99.90;;;;;;5033670;28;20282;-74
2023/05/10 04:13:05;;;;;;;2.00;0.98;;;19.50;99.90;;;;;;5033454;28;20208;-75
2023/05/10 04:15:37;;;;;;;3.67;1.00;;;19.50;99.90;;;;;;5031582;28;20574;-76
2023/05/10 04:18:08;;;;;;;3.20;0.95;;;19.50;99.90;;;;;;5032998;28;20198;-75
2023/05/10 04:20:39;;;;;;;3.22;1.13;;;19.40;99.90;;;;;;5033391;28;20218;-76
2023/05/10 04:23:13;;;;;;;4.15;0.90;;;19.40;99.90;;;;;;5034029;28;20210;-76
2023/05/10 04:25:45;;;;;;;2.92;0.95;;;19.30;99.90;;;;;;5031147;28;20199;-77
2023/05/10 04:28:16;;;;;;;4.53;1.13;;;19.30;99.90;;;;;;5027045;28;20677;-77
2023/05/10 04:30:47;;;;;;;3.92;1.05;;;19.20;99.90;;;;;;5034416;28;20194;-74
2023/05/10 04:33:18;;;;;;;3.10;1.23;;;19.20;99.90;;;;;;5036605;28;20197;-75
2023/05/10 04:35:50;;;;;;;4.30;1.17;;;19.10;99.90;;;;;;5029908;28;20196;-74
2023/05/10 04:38:23;;;;;;;4.22;1.00;;;19.10;99.90;;;;;;5036230;28;20202;-74
2023/05/10 04:40:54;;;;;;;5.03;1.13;;;19.00;99.90;;;;;;5036250;28;20228;-75
2023/05/10 04:43:25;;;;;;;3.20;0.88;;;19.00;99.90;;;;;;5033875;28;20644;-74
2023/05/10 04:45:58;;;;;;;4.15;0.88;;;19.00;99.90;;;;;;5033685;28;20550;-77
2023/05/10 04:48:30;;;;;;;4.03;1.00;;;19.00;99.90;;;;;;5036743;28;20662;-77
2023/05/10 04:51:01;;;;;;;2.95;1.00;;;18.90;99.90;;;;;;5033992;28;20199;-77
2023/05/10 04:53:34;;;;;;;1.92;0.98;;;18.80;99.90;;;;;;5033579;28;20634;-76
2023/05/10 04:56:05;;;;;;;4.00;1.13;;;18.80;99.90;;;;;;5032036;28;20197;-76
2023/05/10 04:58:36;;;;;;;4.13;0.93;;;18.80;99.90;;;;;;5030884;28;20233;-76
2023/05/10 05:01:11;;;;;;;2.72;1.10;;;18.70;99.90;;;;;;5035290;28;20290;-76
2023/05/10 05:03:42;;;;;;;4.90;1.00;;;18.70;99.90;;;;;;5036322;28;20201;-77
2023/05/10 05:06:13;;;;;;;2.85;1.00;;;18.70;99.90;;;;;;5031864;28;20558;-76
2023/05/10 05:08:46;;;;;;;4.22;0.95;;;18.70;99.90;;;;;;5032564;28;20748;-77
2023/05/10 05:11:17;;;;;;;2.40;0.90;;;18.70;99.90;;;;;;5033256;28;20193;-77
2023/05/10 05:13:48;;;;;;;3.28;0.95;;;18.60;99.90;;;;;;5032207;28;20197;-76
2023/05/10 05:16:20;;;;;;;1.85;0.80;;;18.60;99.90;;;;;;5033330;28;20190;-74
2023/05/10 05:18:51;;;;;;;5.00;1.08;;;18.60;99.90;;;;;;5033292;28;20574;-74
2023/05/10 05:21:22;;;;;;;4.47;1.23;;;18.60;99.90;;;;;;5032398;28;20220;-74
2023/05/10 05:23:55;;;;;;;4.10;1.08;;;18.50;99.90;;;;;;5033117;28;20197;-75
2023/05/10 05:26:26;;;;;;;2.95;0.90;;;18.50;99.90;;;;;;5033362;28;20198;-74
2023/05/10 05:28:57;;;;;;;2.40;1.02;;;18.50;99.90;;;;;;5033188;28;20566;-74
2023/05/10 05:31:30;;;;;;;4.75;0.80;;;18.40;99.90;;;;;;5033134;28;20571;-77
2023/05/10 05:34:01;;;;;;;5.13;1.00;;;18.40;99.90;;;;;;5033803;28;20197;-76
2023/05/10 05:36:32;;;;;;;4.50;0.80;;;18.40;99.90;;;;;;5033151;28;20683;-76
2023/05/10 05:39:05;;;;;;;4.18;0.90;;;18.40;99.90;;;;;;5033581;28;20194;-75
2023/05/10 05:41:37;;;;;;;2.33;1.00;;;18.40;99.90;;;;;;5033229;28;20240;-76
2023/05/10 05:44:08;;;;;;;5.55;0.98;;;18.40;99.90;;;;;;5033236;28;20191;-76
2023/05/10 05:46:39;;;;;;;2.13;0.85;;;18.30;99.90;;;;;;5033370;28;20655;-77
2023/05/10 05:49:10;;;;;;;3.55;1.08;;;18.30;99.90;;;;;;5033106;28;20201;-76
2023/05/10 05:51:41;;;;;;;3.40;1.00;;;18.20;99.90;;;;;;5033247;28;20195;-77
2023/05/10 05:54:14;;;;;;;2.88;0.90;;;18.20;99.90;;;;;;5033008;28;20221;-77
2023/05/10 05:56:45;;;;;;;5.05;1.00;;;18.20;99.90;;;;;;5033215;28;20558;-77
2023/05/10 05:59:16;;;;;;;2.80;0.98;;;18.20;99.90;;;;;;5033349;28;20245;-77
2023/05/10 06:01:47;;;;;;;4.65;1.00;;;18.10;99.90;;;;;;5032889;28;20218;-74
2023/05/10 06:04:19;;;;;;;2.35;0.90;;;18.10;99.90;;;;;;5032897;28;20190;-76
2023/05/10 06:06:50;;;;;;;3.45;0.80;;;18.10;99.90;;;;;;5032732;28;20664;-74
2023/05/10 06:09:24;;;;;;;2.55;0.98;;;18.00;99.90;;;;;;5033857;28;20200;-76
2023/05/10 06:11:55;;;;;;;2.63;1.08;;;18.00;99.90;;;;;;5030815;28;20291;-73
2023/05/10 06:14:26;;;;;;;4.47;0.93;;;18.00;99.90;;;;;;5029551;28;20221;-75
2023/05/10 06:16:59;;;;;;;3.47;0.90;;;18.00;99.90;;;;;;5032987;28;20555;-74
2023/05/10 06:19:30;;;;;;;3.05;0.90;;;18.00;99.90;;;;;;5030042;28;20604;-75
2023/05/10 06:22:01;;;;;;;2.45;0.82;;;17.90;99.90;;;;;;5044833;28;20214;-76
2023/05/10 06:24:34;;;;;;;3.47;0.70;;;17.90;99.90;;;;;;5031981;28;20209;-73
2023/05/10 06:27:05;;;;;;;3.55;1.20;;;17.90;99.90;;;;;;5037750;28;20189;-75
2023/05/10 06:29:37;;;;;;;2.90;1.00;;;17.90;99.90;;;;;;5036602;28;20194;-74
2023/05/10 06:32:08;;;;;;;3.53;0.93;;;17.80;99.90;;;;;;5033533;28;20210;-74
2023/05/10 06:34:39;;;;;;;3.13;0.95;;;17.80;99.90;;;;;;5035772;28;20210;-73
2023/05/10 06:37:10;;;;;;;4.60;1.02;;;17.80;99.90;;;;;;5034851;28;20202;-73
2023/05/10 06:39:43;;;;;;;2.88;0.93;;;17.70;99.90;;;;;;5035634;28;20229;-74
2023/05/10 06:42:14;;;;;;;5.68;1.00;;;17.70;99.90;;;;;;5035036;28;20558;-73
2023/05/10 06:44:45;;;;;;;3.25;1.10;;;17.60;99.90;;;;;;5027570;28;20198;-74
2023/05/10 06:47:17;;;;;;;4.13;1.10;;;17.50;99.90;;;;;;5034578;28;20202;-75
2023/05/10 06:49:48;;;;;;;3.85;1.08;;;17.50;99.90;;;;;;5035370;28;20198;-74
2023/05/10 06:52:19;;;;;;;4.35;1.00;;;17.50;99.90;;;;;;5035681;28;20190;-75
2023/05/10 06:54:52;;;;;;;1.00;0.63;;;17.40;99.90;;;;;;5034933;28;20230;-73
2023/05/10 06:57:23;;;;;;;2.67;0.80;;;17.30;99.90;;;;;;5030036;28;20704;-74
2023/05/10 06:59:55;;;;;;;3.63;1.10;;;17.30;99.90;;;;;;5036081;28;20548;-73
2023/05/10 07:02:26;;;;;;;3.22;0.95;;;17.20;99.90;;;;;;5035744;28;20222;-73
2023/05/10 07:04:57;;;;;;;3.55;0.80;;;17.20;99.90;;;;;;5035605;28;20201;-74
2023/05/10 07:07:28;;;;;;;3.28;1.00;;;17.10;99.90;;;;;;5036024;28;20190;-73
2023/05/10 07:10:01;;;;;;;2.70;1.08;;;17.10;99.90;;;;;;5035724;28;20207;-74
2023/05/10 07:12:33;;;;;;;5.85;1.10;;;17.00;99.90;;;;;;5035871;28;20300;-75
2023/05/10 07:15:04;;;;;;;2.83;1.10;;;16.90;99.90;;;;;;5035428;28;20194;-75
2023/05/10 07:17:35;;;;;;;2.90;1.20;;;16.90;99.90;;;;;;5035606;28;20277;-75
2023/05/10 07:20:06;;;;;;;4.60;1.17;;;16.90;99.90;;;;;;5035277;28;20197;-73
2023/05/10 07:22:38;;;;;;;4.50;1.00;;;16.90;99.90;;;;;;5035649;28;20744;-73
2023/05/10 07:25:13;;;;;;;5.00;1.60;;;16.80;99.90;;;;;;5035417;28;20190;-75
2023/05/10 07:27:44;;;;;;;4.97;1.50;;;16.80;99.90;;;;;;5035387;28;20642;-75
2023/05/10 07:30:16;;;;;;;4.50;1.02;;;16.70;99.90;;;;;;5035384;28;20194;-73
2023/05/10 07:32:47;;;;;;;3.13;1.23;;;16.70;99.90;;;;;;5034285;28;20197;-75
2023/05/10 07:35:18;;;;;;;5.82;1.30;;;16.60;99.90;;;;;;5035594;28;20202;-73
2023/05/10 07:37:49;;;;;;;3.25;1.10;;;16.60;99.90;;;;;;5035146;28;20190;-73
2023/05/10 07:40:23;;;;;;;2.42;1.00;;;16.60;99.90;;;;;;5035065;28;20187;-73
2023/05/10 07:42:54;;;;;;;4.78;1.38;;;16.50;99.90;;;;;;5035311;28;20194;-75
2023/05/10 07:45:25;;;;;;;5.20;1.08;;;16.50;99.90;;;;;;5035642;28;20236;-75
2023/05/10 07:47:57;;;;;;;4.03;1.30;;;16.50;99.90;;;;;;5034981;28;20186;-75
2023/05/10 07:50:28;;;;;;;3.25;1.30;;;16.50;99.90;;;;;;5035508;28;20270;-75
2023/05/10 07:52:59;;;;;;;6.72;1.50;;;16.40;99.90;;;;;;5034953;28;20191;-75
2023/05/10 07:55:32;;;;;;;4.55;1.98;;;16.40;99.90;;;;;;5034742;28;20226;-75
2023/05/10 07:58:03;;;;;;;3.55;1.58;;;16.40;99.90;;;;;;5034720;28;20230;-75
2023/05/10 08:00:34;;;;;;;4.95;1.70;;;16.30;99.90;;;;;;5035410;28;20556;-75
2023/05/10 08:03:05;;;;;;;3.50;1.52;;;16.30;99.90;;;;;;5034748;28;20190;-75
2023/05/10 08:05:36;;;;;;;4.00;1.55;;;16.30;99.90;;;;;;5034681;28;20190;-75
2023/05/10 08:08:08;;;;;;;4.57;1.50;;;16.20;99.90;;;;;;5034743;28;20634;-75
2023/05/10 08:10:41;;;;;;;6.53;1.90;;;16.20;99.90;;;;;;5034515;28;20195;-75
2023/05/10 08:13:12;;;;;;;3.97;1.88;;;16.20;99.90;;;;;;5034513;28;20196;-75
2023/05/10 08:15:43;;;;;;;5.05;1.75;;;16.10;99.90;;;;;;5034371;28;20202;-74
2023/05/10 08:18:14;;;;;;;4.55;1.55;;;16.10;99.90;;;;;;5031430;28;20190;-73
2023/05/10 08:20:46;;;;;;;5.25;1.60;;;16.10;99.90;;;;;;5028683;28;20224;-74
2023/05/10 08:23:17;;;;;;;5.15;1.70;;;16.10;99.90;;;;;;5034443;28;20190;-74
2023/05/10 08:25:50;;;;;;;5.18;1.60;;;16.00;99.90;;;;;;5034375;28;20205;-73
2023/05/10 08:28:21;;;;;;;4.13;1.50;;;16.00;99.90;;;;;;5034291;28;20200;-74
2023/05/10 08:30:53;;;;;;;4.70;1.60;;;16.00;99.90;;;;;;5034444;28;20533;-75
2023/05/10 08:33:24;;;;;;;5.38;1.70;;;15.90;99.90;;;;;;5034729;28;20197;-74
2023/05/10 08:35:55;;;;;;;5.95;1.77;;;15.90;99.90;;;;;;5034160;28;20565;-75
2023/05/10 08:38:26;;;;;;;3.83;1.63;;;15.90;99.90;;;;;;5034318;28;20194;-75
2023/05/10 08:41:00;;;;;;;5.80;1.95;;;15.90;99.90;;;;;;5034016;28;20693;-75
2023/05/10 08:43:32;;;;;;;6.30;2.22;;;15.90;99.90;;;;;;5029001;28;20533;-74
2023/05/10 08:46:07;;;;;;;4.20;1.90;;;15.80;99.90;;;;;;5014165;28;20199;-75
2023/05/10 08:48:39;;;;;;;4.72;1.98;;;15.80;99.90;;;;;;5023525;28;20198;-74
2023/05/10 08:51:11;;;;;;;5.28;2.17;;;15.70;99.90;;;;;;5034425;28;20685;-75
2023/05/10 08:53:42;;;;;;;4.82;2.20;;;15.70;99.90;;;;;;5034048;28;20241;-74
2023/05/10 08:56:15;;;;;;;5.68;2.15;;;15.70;99.90;;;;;;5033069;28;20202;-74
2023/05/10 08:58:48;;;;;;;4.05;2.10;;;15.60;99.90;;;;;;5023051;28;20226;-75
2023/05/10 09:01:20;;;;;;;8.02;2.38;;;15.50;99.90;;;;;;5027639;28;20575;-73
2023/05/10 09:03:52;;;;;;;6.85;2.40;;;15.50;99.90;;;;;;5036557;28;20193;-73
2023/05/10 09:06:24;;;;;;;4.55;1.83;;;15.50;99.90;;;;;;5038781;28;20204;-74
2023/05/10 09:08:56;;;;;;;5.22;2.25;;;15.40;99.90;;;;;;5033454;28;20209;-73
2023/05/10 09:11:30;;;;;;;5.20;2.70;;;15.40;99.90;;;;;;5033341;28;20198;-73
2023/05/10 09:14:01;;;;;;;6.72;2.55;;;15.40;99.90;;;;;;5031349;28;20280;-73
2023/05/10 09:16:32;;;;;;;4.60;3.00;;;15.30;99.90;;;;;;5030941;28;20198;-74
2023/05/10 09:19:03;;;;;;;5.55;2.40;;;15.30;99.90;;;;;;5033018;28;20579;-73
2023/05/10 09:21:35;;;;;;;5.60;2.53;;;15.30;99.90;;;;;;5039408;28;20220;-73
2023/05/10 09:24:08;;;;;;;5.82;2.53;;;15.20;99.90;;;;;;5031679;28;20733;-74
2023/05/10 09:26:50;;;;;;;6.38;2.42;;;15.20;99.90;;;;;;5030998;28;20240;-74
2023/05/10 09:29:21;;;;;;;5.63;2.38;;;15.20;99.90;;;;;;5025747;28;20198;-73
2023/05/10 09:31:54;;;;;;;5.45;3.00;;;15.10;99.90;;;;;;5026247;28;20661;-75
2023/05/10 09:34:34;;;;;;;6.90;2.90;;;15.10;99.90;;;;;;5031503;28;20202;-73
2023/05/10 09:37:06;;;;;;;7.25;3.20;;;15.10;99.90;;;;;;5032578;28;20198;-74
2023/05/10 09:39:38;;;;;;;7.63;3.15;;;15.00;99.90;;;;;;5030697;28;20654;-74
2023/05/10 09:42:12;;;;;;;7.30;3.03;;;15.00;99.90;;;;;;5031875;28;20228;-74
2023/05/10 09:44:43;;;;;;;6.82;3.25;;;15.00;99.90;;;;;;5032108;28;21022;-74
2023/05/10 09:47:19;;;;;;;7.95;3.17;;;15.00;99.90;;;;;;5031519;28;20199;-74
2023/05/10 09:49:57;;;;;;;6.28;3.40;;;14.90;99.90;;;;;;5031960;28;20268;-74
2023/05/10 09:52:28;;;;;;;8.68;3.47;;;14.90;99.90;;;;;;5033562;28;20202;-74
2023/05/10 09:54:59;;;;;;;11.32;3.97;;;14.90;99.90;;;;;;5035821;28;20275;-74
2023/05/10 09:57:32;;;;;;;8.82;3.70;;;14.80;99.90;;;;;;5030178;28;20230;-74
2023/05/10 10:00:05;;;;;;;9.32;4.00;;;14.80;99.90;;;;;;5035849;28;20205;-74
2023/05/10 10:02:36;;;;;;;9.30;3.55;;;14.80;99.90;;;;;;5035756;28;20224;-73
2023/05/10 10:05:08;;;;;;;11.15;4.18;;;14.80;99.90;;;;;;5038360;28;20197;-74
2023/05/10 10:07:40;;;;;;;8.45;3.88;;;14.80;99.90;;;;;;5036652;28;20623;-73
2023/05/10 10:10:13;;;;;;;7.22;3.90;;;14.80;99.90;;;;;;5049676;28;20685;-75
2023/05/10 10:12:46;;;;;;;8.77;3.75;;;14.70;99.90;;;;;;5056787;28;20189;-75
2023/05/10 10:15:18;;;;;;;8.70;3.60;;;14.70;99.90;;;;;;5042502;28;20556;-75
2023/05/10 10:17:50;;;;;;;8.32;3.47;;;14.70;99.90;;;;;;5048073;28;20572;-74
2023/05/10 10:20:23;;;;;;;8.07;3.10;;;14.70;99.90;;;;;;5055277;28;20251;-72
2023/05/10 10:22:54;;;;;;;6.60;3.42;;;14.60;99.90;;;;;;5051768;28;20297;-74
2023/05/10 10:25:26;;;;;;;8.52;3.30;;;14.60;99.90;;;;;;5043164;28;20185;-73
2023/05/10 10:28:13;;;;;;;11.60;3.88;;;14.60;99.90;;;;;;5041361;28;20202;-73
2023/05/10 10:30:47;;;;;;;12.10;3.60;;;14.60;99.90;;;;;;5053125;28;20197;-73
2023/05/10 10:33:42;;;;;;;9.02;3.70;;;14.50;99.90;;;;;;5056045;28;20197;-74
2023/05/10 10:36:14;;;;;;;7.85;3.28;;;14.50;99.90;;;;;;5056609;28;20224;-75
2023/05/10 10:39:04;;;;;;;7.13;3.40;;;14.50;99.90;;;;;;5056434;28;20196;-75
2023/05/10 10:41:37;;;;;;;8.75;3.60;;;14.50;99.90;;;;;;5056333;28;20271;-75
2023/05/10 10:44:29;;;;;;;9.93;3.60;;;14.40;99.90;;;;;;5047834;28;20206;-75
2023/05/10 10:47:05;;;;;;;10.10;4.57;;;14.40;99.90;;;;;;5016700;28;20199;-74
2023/05/10 10:49:41;;;;;;;10.63;4.80;;;14.40;99.90;;;;;;5054763;28;20637;-73
2023/05/10 10:52:28;;;;;;;10.73;5.05;;;14.40;99.90;;;;;;5056029;28;20200;-73
2023/05/10 10:55:03;;;;;;;10.98;5.72;;;14.40;99.90;;;;;;5056187;28;20225;-72
2023/05/10 10:57:45;;;;;;;12.50;6.20;;;14.40;99.90;;;;;;5055779;28;20233;-72
2023/05/10 11:00:30;;;;;;;9.88;5.57;;;14.30;99.90;;;;;;5054699;28;20193;-74
2023/05/10 11:03:06;;;;;;;12.23;6.07;;;14.30;99.90;;;;;;5036902;28;20300;-74
2023/05/10 11:05:44;;;;;;;13.10;5.18;;;14.30;99.90;;;;;;5035745;28;20277;-72
2023/05/10 11:08:21;;;;;;;7.55;3.50;;;14.30;99.90;;;;;;5034784;28;20198;-74
2023/05/10 11:11:08;;;;;;;6.68;3.70;;;14.30;99.90;;;;;;5035629;28;20216;-74
2023/05/10 11:13:43;;;;;;;8.25;3.60;;;14.20;99.90;;;;;;5037769;28;20190;-74
2023/05/10 11:16:21;;;;;;;7.30;3.70;;;14.20;99.90;;;;;;5040164;28;20190;-74
2023/05/10 11:19:02;;;;;;;8.57;3.30;;;14.20;99.90;;;;;;5035534;28;20206;-73
2023/05/10 11:21:33;;;;;;;6.05;3.10;;;14.20;99.90;;;;;;5035489;28;20194;-74
2023/05/10 11:24:15;;;;;;;8.88;3.67;;;14.20;99.90;;;;;;5035500;28;20646;-73
2023/05/10 11:26:46;;;;;;;8.23;3.60;;;14.10;99.90;;;;;;5035250;28;20194;-72
2023/05/10 11:29:18;;;;;;;7.32;3.50;;;14.10;99.90;;;;;;5035511;28;20197;-74
2023/05/10 11:31:53;;;;;;;9.82;3.70;;;14.10;99.90;;;;;;5039764;28;20643;-73
2023/05/10 11:34:33;;;;;;;8.80;4.30;;;14.10;99.90;;;;;;5017359;28;20186;-73
2023/05/10 11:37:04;;;;;;;9.23;3.80;;;14.10;99.90;;;;;;5035359;28;20198;-73
2023/05/10 11:39:35;;;;;;;9.65;3.95;;;14.00;99.90;;;;;;5035454;28;20194;-74
2023/05/10 11:42:09;;;;;;;9.13;4.53;;;14.00;99.90;;;;;;5035049;28;20215;-74
2023/05/10 11:44:40;;;;;;;8.63;4.28;;;14.00;99.90;;;;;;5048600;28;20194;-74
2023/05/10 11:47:14;;;;;;;9.07;4.20;;;14.00;99.90;;;;;;5055045;28;20200;-73
2023/05/10 11:49:48;;;;;;;10.68;4.10;;;14.00;99.90;;;;;;5040782;28;20199;-74
2023/05/10 11:52:21;;;;;;;9.10;4.50;;;14.00;99.90;;;;;;5034858;28;20214;-72
2023/05/10 11:54:56;;;;;;;10.75;4.30;;;14.00;99.90;;;;;;5033894;28;20229;-74
2023/05/10 11:57:31;;;;;;;9.07;3.97;;;13.90;99.90;;;;;;5048537;28;20230;-72
2023/05/10 12:00:03;;;;;;;8.30;4.05;;;13.90;99.90;;;;;;5034005;28;20585;-73
2023/05/10 12:02:36;;;;;;;9.15;4.40;;;13.90;99.90;;;;;;5033736;28;20700;-72
2023/05/10 12:05:09;;;;;;;8.55;4.30;;;13.80;99.90;;;;;;5053158;28;20193;-73
2023/05/10 12:07:40;;;;;;;10.98;4.40;;;13.80;99.90;;;;;;5047313;28;20194;-74
2023/05/10 12:10:14;;;;;;;8.30;4.40;;;13.80;99.90;;;;;;5033606;28;20220;-72
2023/05/10 12:12:45;;;;;;;9.43;4.55;;;13.80;99.90;;;;;;5044406;28;20667;-74
2023/05/10 12:15:21;;;;;;;11.25;4.75;;;13.80;99.90;;;;;;5032147;28;20197;-73
2023/05/10 12:17:54;;;;;;;7.05;4.22;;;13.70;99.90;;;;;;5041497;28;20190;-74
2023/05/10 12:20:27;;;;;;;9.70;4.45;;;13.70;99.90;;;;;;5031626;28;20198;-75
2023/05/10 12:22:59;;;;;;;9.88;4.70;;;13.70;99.90;;;;;;5042211;28;20210;-74
2023/05/10 12:25:35;;;;;;;10.07;4.80;;;13.70;99.90;;;;;;5033889;28;20212;-74
2023/05/10 12:28:08;;;;;;;10.98;4.72;;;13.70;99.90;;;;;;5034359;28;20213;-74
2023/05/10 12:30:40;;;;;;;8.82;4.40;;;13.60;99.90;;;;;;5034124;28;20304;-74
2023/05/10 12:33:16;;;;;;;11.88;4.82;;;13.60;99.90;;;;;;5034218;28;20201;-72
2023/05/10 12:35:52;;;;;;;9.93;4.70;;;13.60;99.90;;;;;;5033908;28;20592;-73
2023/05/10 12:38:31;;;;;;;10.18;4.95;;;13.60;99.90;;;;;;5036346;28;20245;-74
2023/05/10 12:41:02;;;;;;;10.07;4.78;;;13.50;99.90;;;;;;5035063;28;20202;-74
2023/05/10 12:43:34;;;;;;;10.38;4.50;;;13.50;99.90;;;;;;5033722;28;20221;-72
2023/05/10 12:46:09;;;;;;;8.73;4.60;;;13.50;99.90;;;;;;5043770;28;20201;-73
2023/05/10 12:48:44;;;;;;;8.55;4.57;;;13.40;99.90;;;;;;5031915;28;20556;-74
2023/05/10 12:51:17;;;;;;;8.23;4.57;;;13.40;99.90;;;;;;5033301;28;20192;-72
2023/05/10 12:53:48;;;;;;;8.90;4.30;;;13.30;99.90;;;;;;5025264;28;20228;-73
2023/05/10 12:56:19;;;;;;;8.20;4.40;;;13.30;99.90;;;;;;5033899;28;20530;-73
2023/05/10 12:58:53;;;;;;;9.48;4.43;;;13.30;99.90;;;;;;5033570;28;20234;-74
2023/05/10 13:01:24;;;;;;;10.80;4.75;;;13.30;99.90;;;;;;5033544;28;20202;-73
2023/05/10 13:03:57;;;;;;;8.68;4.20;;;13.20;99.90;;;;;;5033851;28;20226;-73
2023/05/10 13:06:28;;;;;;;7.72;4.55;;;13.20;99.90;;;;;;5021973;28;20198;-72
2023/05/10 13:08:59;;;;;;;11.02;4.65;;;13.20;99.90;;;;;;5029449;28;20563;-73
2023/05/10 13:11:30;;;;;;;8.57;4.65;;;13.20;99.90;;;;;;5032989;28;20199;-72
2023/05/10 13:14:03;;;;;;;8.55;4.35;;;13.20;99.90;;;;;;5013759;28;20206;-73
2023/05/10 13:16:34;;;;;;;7.22;4.40;;;13.20;99.90;;;;;;5025059;28;20199;-73